createdAt,value
2017-10-20T00:01:15.385Z,98.63
2017-10-20T00:03:43.099Z,98.66
2017-10-20T00:06:10.752Z,98.66
2017-10-20T00:08:38.513Z,98.69
2017-10-20T00:11:06.163Z,98.68
2017-10-20T00:13:33.812Z,98.74
2017-10-20T00:16:01.486Z,98.79
2017-10-20T00:18:29.082Z,98.85
2017-10-20T00:20:56.772Z,98.83
2017-10-20T00:23:24.419Z,98.83
2017-10-20T00:25:52.041Z,98.84
2017-10-20T00:28:19.625Z,98.83
2017-10-20T00:30:47.312Z,98.79
2017-10-20T00:33:14.954Z,98.76
2017-10-20T00:35:42.622Z,98.79
2017-10-20T00:38:10.297Z,98.84
2017-10-20T00:40:37.994Z,98.85
2017-10-20T00:43:05.635Z,98.89
2017-10-20T00:45:33.361Z,98.87
2017-10-20T00:48:01.006Z,98.87
2017-10-20T00:50:28.692Z,98.88
2017-10-20T00:52:56.334Z,98.92
2017-10-20T00:55:24.060Z,98.96
2017-10-20T00:57:51.713Z,98.97
2017-10-20T01:00:19.432Z,98.96
2017-10-20T01:02:47.092Z,99.00
2017-10-20T01:05:14.752Z,99.01
2017-10-20T01:07:42.452Z,99.05
2017-10-20T01:10:10.119Z,99.07
2017-10-20T01:12:37.825Z,99.11
2017-10-20T01:15:05.483Z,99.09
2017-10-20T01:17:33.211Z,99.11
2017-10-20T01:20:00.923Z,99.14
2017-10-20T01:22:28.638Z,99.17
2017-10-20T01:24:56.269Z,99.16
2017-10-20T01:27:24.033Z,99.16
2017-10-20T01:29:51.684Z,99.15
2017-10-20T01:32:19.363Z,99.13
2017-10-20T01:34:47.005Z,99.12
2017-10-20T01:37:14.721Z,99.11
2017-10-20T01:39:42.363Z,99.10
2017-10-20T01:42:10.081Z,99.13
2017-10-20T01:44:37.729Z,99.11
2017-10-20T01:47:05.385Z,99.10
2017-10-20T01:49:33.078Z,99.09
2017-10-20T01:52:00.747Z,99.09
2017-10-20T01:54:28.449Z,99.09
2017-10-20T01:56:56.107Z,99.10
2017-10-20T01:59:23.791Z,99.15
2017-10-20T02:01:51.446Z,99.21
2017-10-20T02:04:19.145Z,99.33
2017-10-20T02:06:46.802Z,99.38
2017-10-20T02:09:14.484Z,99.43
2017-10-20T02:11:42.149Z,99.46
2017-10-20T02:14:09.834Z,99.48
2017-10-20T02:16:37.488Z,99.49
2017-10-20T02:19:05.170Z,99.50
2017-10-20T02:21:32.815Z,99.53
2017-10-20T02:24:00.484Z,99.56
2017-10-20T02:26:28.142Z,99.68
2017-10-20T02:28:55.810Z,99.64
2017-10-20T02:31:23.495Z,99.61
2017-10-20T02:33:51.156Z,99.65
2017-10-20T02:36:18.863Z,99.69
2017-10-20T02:38:46.565Z,99.74
2017-10-20T02:41:14.269Z,99.79
2017-10-20T02:43:41.871Z,99.80
2017-10-20T02:46:09.640Z,99.81
2017-10-20T02:48:37.307Z,99.87
2017-10-20T02:51:05.037Z,99.91
2017-10-20T02:53:32.701Z,99.96
2017-10-20T02:56:00.383Z,99.97
2017-10-20T02:58:28.046Z,100.00
2017-10-20T03:00:55.734Z,100.00
2017-10-20T03:03:23.385Z,100.00
2017-10-20T03:05:51.102Z,100.00
2017-10-20T03:08:18.762Z,100.00
2017-10-20T03:10:46.409Z,100.00
2017-10-20T03:13:14.102Z,100.00
2017-10-20T03:15:41.760Z,100.00
2017-10-20T03:18:09.442Z,100.00
2017-10-20T03:20:37.108Z,100.00
2017-10-20T03:23:04.790Z,100.00
2017-10-20T03:25:32.438Z,100.00
2017-10-20T03:28:00.137Z,100.00
2017-10-20T03:30:27.739Z,100.00
2017-10-20T03:32:55.434Z,100.00
2017-10-20T03:35:23.103Z,100.00
2017-10-20T03:37:50.842Z,100.00
2017-10-20T03:40:18.494Z,100.00
2017-10-20T03:42:46.189Z,100.00
2017-10-20T03:45:13.799Z,100.00
2017-10-20T03:47:41.466Z,100.00
2017-10-20T03:50:09.159Z,100.00
2017-10-20T03:52:36.818Z,100.00
2017-10-20T03:55:04.460Z,100.00
2017-10-20T03:57:32.118Z,100.00
2017-10-20T03:59:59.802Z,100.00
2017-10-20T04:02:27.466Z,100.00
2017-10-20T04:04:55.174Z,100.00
2017-10-20T04:07:22.865Z,100.00
2017-10-20T04:09:50.582Z,100.00
2017-10-20T04:12:18.287Z,100.00
2017-10-20T04:14:45.993Z,100.00
2017-10-20T04:17:13.674Z,100.00
2017-10-20T04:19:41.313Z,100.00
2017-10-20T04:22:08.986Z,100.00
2017-10-20T04:24:36.637Z,100.00
2017-10-20T04:27:04.367Z,100.00
2017-10-20T04:29:32.061Z,100.00
2017-10-20T04:31:59.786Z,100.00
2017-10-20T04:34:27.466Z,100.00
2017-10-20T04:36:55.184Z,100.00
2017-10-20T04:39:22.842Z,100.00
2017-10-20T04:41:50.542Z,100.00
2017-10-20T04:44:18.216Z,100.00
2017-10-20T04:46:45.900Z,100.00
2017-10-20T04:49:13.569Z,100.00
2017-10-20T04:51:42.121Z,100.00
2017-10-20T04:54:09.779Z,100.00
2017-10-20T04:56:37.478Z,100.00
2017-10-20T04:59:05.134Z,100.00
2017-10-20T05:01:32.824Z,100.00
2017-10-20T05:04:00.502Z,100.00
2017-10-20T05:06:28.261Z,100.00
2017-10-20T05:08:55.918Z,100.00
2017-10-20T05:11:23.587Z,100.00
2017-10-20T05:13:51.310Z,100.00
2017-10-20T05:16:18.917Z,100.00
2017-10-20T05:18:46.542Z,100.00
2017-10-20T05:21:14.122Z,100.00
2017-10-20T05:23:41.782Z,100.00
2017-10-20T05:26:09.375Z,100.00
2017-10-20T05:28:36.994Z,100.00
2017-10-20T05:31:04.595Z,100.00
2017-10-20T05:33:32.222Z,100.00
2017-10-20T05:35:59.822Z,100.00
2017-10-20T05:38:27.461Z,100.00
2017-10-20T05:40:55.109Z,100.00
2017-10-20T05:43:22.748Z,100.00
2017-10-20T05:45:50.360Z,100.00
2017-10-20T05:48:17.989Z,100.00
2017-10-20T05:50:45.617Z,100.00
2017-10-20T05:53:13.277Z,100.00
2017-10-20T05:55:40.858Z,100.00
2017-10-20T05:58:08.499Z,100.00
2017-10-20T06:00:36.097Z,100.00
2017-10-20T06:03:03.739Z,100.00
2017-10-20T06:05:31.342Z,100.00
2017-10-20T06:07:58.949Z,100.00
2017-10-20T06:10:26.586Z,100.00
2017-10-20T06:12:54.183Z,100.00
2017-10-20T06:15:21.814Z,100.00
2017-10-20T06:17:49.419Z,100.00
2017-10-20T06:20:17.070Z,100.00
2017-10-20T06:22:44.661Z,100.00
2017-10-20T06:25:12.299Z,100.00
2017-10-20T06:27:39.903Z,100.00
2017-10-20T06:30:07.543Z,100.00
2017-10-20T06:32:35.194Z,100.00
2017-10-20T06:35:02.840Z,100.00
2017-10-20T06:37:30.449Z,100.00
2017-10-20T06:39:58.078Z,100.00
2017-10-20T06:42:25.670Z,100.00
2017-10-20T06:44:53.310Z,100.00
2017-10-20T06:47:20.910Z,100.00
2017-10-20T06:49:48.544Z,100.00
2017-10-20T06:52:16.338Z,100.00
2017-10-20T06:54:44.030Z,100.00
2017-10-20T06:57:11.641Z,100.00
2017-10-20T06:59:39.263Z,100.00
2017-10-20T07:02:06.935Z,99.95
2017-10-20T07:04:34.543Z,99.86
2017-10-20T07:07:02.175Z,99.74
2017-10-20T07:09:29.777Z,99.62
2017-10-20T07:11:57.512Z,99.47
2017-10-20T07:14:25.113Z,99.38
2017-10-20T07:16:52.748Z,99.38
2017-10-20T07:19:25.941Z,99.33
2017-10-20T07:21:53.579Z,99.20
2017-10-20T07:24:21.186Z,99.01
2017-10-20T07:26:48.811Z,98.84
2017-10-20T07:29:16.406Z,98.77
2017-10-20T07:31:44.066Z,98.69
2017-10-20T07:34:11.703Z,98.68
2017-10-20T07:36:39.309Z,98.64
2017-10-20T07:39:06.954Z,98.62
2017-10-20T07:41:34.602Z,98.53
2017-10-20T07:44:02.221Z,98.27
2017-10-20T07:46:29.815Z,98.22
2017-10-20T07:48:57.435Z,98.03
2017-10-20T07:51:25.024Z,97.89
2017-10-20T07:53:52.874Z,97.74
2017-10-20T07:56:20.500Z,97.55
2017-10-20T07:58:48.131Z,97.26
2017-10-20T08:01:15.726Z,97.24
2017-10-20T08:03:43.370Z,97.06
2017-10-20T08:06:10.957Z,96.98
2017-10-20T08:08:38.591Z,96.68
2017-10-20T08:11:06.179Z,96.34
2017-10-20T08:13:33.798Z,96.40
2017-10-20T08:16:01.383Z,96.15
2017-10-20T08:18:28.977Z,95.97
2017-10-20T08:20:56.600Z,95.32
2017-10-20T08:23:24.205Z,95.32
2017-10-20T08:25:51.826Z,95.38
2017-10-20T08:28:19.440Z,95.14
2017-10-20T08:30:47.060Z,95.06
2017-10-20T08:33:14.642Z,95.00
2017-10-20T08:35:42.279Z,94.95
2017-10-20T08:38:09.893Z,95.27
2017-10-20T08:40:37.528Z,95.06
2017-10-20T08:43:05.119Z,95.15
2017-10-20T08:45:32.747Z,94.71
2017-10-20T08:48:00.344Z,94.53
2017-10-20T08:50:27.956Z,94.22
2017-10-20T08:52:55.535Z,93.90
2017-10-20T08:55:23.173Z,93.79
2017-10-20T08:57:50.770Z,93.67
2017-10-20T09:00:18.442Z,93.66
2017-10-20T09:02:46.056Z,93.42
2017-10-20T09:05:13.688Z,93.33
2017-10-20T09:07:41.270Z,93.28
2017-10-20T09:10:08.865Z,92.66
2017-10-20T09:12:36.494Z,92.55
2017-10-20T09:15:04.094Z,92.33
2017-10-20T09:17:31.732Z,92.07
2017-10-20T09:19:59.405Z,91.83
2017-10-20T09:22:27.048Z,91.79
2017-10-20T09:24:54.706Z,91.38
2017-10-20T09:27:22.414Z,91.77
2017-10-20T09:29:50.073Z,91.40
2017-10-20T09:32:17.795Z,91.22
2017-10-20T09:34:45.450Z,90.97
2017-10-20T09:37:13.258Z,91.25
2017-10-20T09:39:40.935Z,91.42
2017-10-20T09:42:08.561Z,91.25
2017-10-20T09:44:36.186Z,91.49
2017-10-20T09:47:03.810Z,91.24
2017-10-20T09:49:31.434Z,91.27
2017-10-20T09:51:59.066Z,90.87
2017-10-20T09:54:26.658Z,91.07
2017-10-20T09:56:54.296Z,90.49
2017-10-20T09:59:21.933Z,90.42
2017-10-20T10:01:49.659Z,90.64
2017-10-20T10:04:17.254Z,90.34
2017-10-20T10:06:44.849Z,90.25
2017-10-20T10:09:12.473Z,90.18
2017-10-20T10:11:40.066Z,90.29
2017-10-20T10:14:07.704Z,90.24
2017-10-20T10:16:35.290Z,89.89
2017-10-20T10:19:02.912Z,89.78
2017-10-20T10:21:30.518Z,89.82
2017-10-20T10:23:58.138Z,89.11
2017-10-20T10:26:25.718Z,88.65
2017-10-20T10:28:53.358Z,88.54
2017-10-20T10:31:20.952Z,88.33
2017-10-20T10:33:48.594Z,88.51
2017-10-20T10:36:16.211Z,87.33
2017-10-20T10:38:43.861Z,86.59
2017-10-20T10:41:11.449Z,86.86
2017-10-20T10:43:39.079Z,86.08
2017-10-20T10:46:06.686Z,85.98
2017-10-20T10:48:34.285Z,86.05
2017-10-20T10:51:01.997Z,86.35
2017-10-20T10:53:29.588Z,86.91
2017-10-20T10:55:57.241Z,87.55
2017-10-20T10:58:24.835Z,87.76
2017-10-20T11:00:52.474Z,88.13
2017-10-20T11:03:20.086Z,87.76
2017-10-20T11:05:59.398Z,88.37
2017-10-20T11:08:38.755Z,88.13
2017-10-20T11:11:18.130Z,88.15
2017-10-20T11:13:45.754Z,88.40
2017-10-20T11:16:13.391Z,88.50
2017-10-20T11:18:40.993Z,88.52
2017-10-20T11:21:08.632Z,88.31
2017-10-20T11:23:36.223Z,88.40
2017-10-20T11:26:03.879Z,88.83
2017-10-20T11:28:31.493Z,88.64
2017-10-20T11:30:59.123Z,88.55
2017-10-20T11:33:26.706Z,88.98
2017-10-20T11:35:54.333Z,89.29
2017-10-20T11:38:21.939Z,89.58
2017-10-20T11:40:49.573Z,89.60
2017-10-20T11:43:17.173Z,89.70
2017-10-20T11:45:44.771Z,90.17
2017-10-20T11:48:12.397Z,90.08
2017-10-20T11:50:40.004Z,90.09
2017-10-20T11:53:07.636Z,89.97
2017-10-20T11:55:35.222Z,90.23
2017-10-20T11:58:02.875Z,90.51
2017-10-20T12:00:30.486Z,90.40
2017-10-20T12:02:58.124Z,90.35
2017-10-20T12:05:25.709Z,90.58
2017-10-20T12:07:53.333Z,90.62
2017-10-20T12:10:20.933Z,91.08
2017-10-20T12:12:48.551Z,91.17
2017-10-20T12:15:16.144Z,91.29
2017-10-20T12:17:43.774Z,91.57
2017-10-20T12:20:11.372Z,91.80
2017-10-20T12:22:39.006Z,92.05
2017-10-20T12:25:06.663Z,92.49
2017-10-20T12:27:34.275Z,92.74
2017-10-20T12:30:01.894Z,92.85
2017-10-20T12:32:29.498Z,92.72
2017-10-20T12:34:57.141Z,92.95
2017-10-20T12:37:31.595Z,93.26
2017-10-20T12:39:59.238Z,93.35
2017-10-20T12:42:26.861Z,93.50
2017-10-20T12:44:54.475Z,93.52
2017-10-20T12:47:22.143Z,93.58
2017-10-20T12:49:49.858Z,93.56
2017-10-20T12:52:17.571Z,93.61
2017-10-20T12:54:45.316Z,93.66
2017-10-20T12:57:13.006Z,93.72
2017-10-20T12:59:40.642Z,93.99
2017-10-20T13:02:08.263Z,93.93
2017-10-20T13:04:35.994Z,93.96
2017-10-20T13:07:03.651Z,93.92
2017-10-20T13:09:31.295Z,93.83
2017-10-20T13:11:58.904Z,93.76
2017-10-20T13:14:26.597Z,93.93
2017-10-20T13:16:54.250Z,93.91
2017-10-20T13:19:21.960Z,93.93
2017-10-20T13:21:49.684Z,94.01
2017-10-20T13:24:17.290Z,94.21
2017-10-20T13:26:45.015Z,94.47
2017-10-20T13:29:12.613Z,94.51
2017-10-20T13:31:40.247Z,94.62
2017-10-20T13:34:07.920Z,94.57
2017-10-20T13:36:35.625Z,94.51
2017-10-20T13:39:03.383Z,94.26
2017-10-20T13:41:31.071Z,94.04
2017-10-20T13:43:58.655Z,94.05
2017-10-20T13:46:26.271Z,94.26
2017-10-20T13:48:53.922Z,94.32
2017-10-20T13:51:22.625Z,94.39
2017-10-20T13:53:50.275Z,94.52
2017-10-20T13:56:17.931Z,94.87
2017-10-20T13:58:45.661Z,95.42
2017-10-20T14:01:13.367Z,95.88
2017-10-20T14:03:41.109Z,96.18
2017-10-20T14:06:08.802Z,96.48
2017-10-20T14:08:36.498Z,96.59
2017-10-20T14:11:04.152Z,96.57
2017-10-20T14:13:31.848Z,96.58
2017-10-20T14:15:59.535Z,96.69
2017-10-20T14:18:27.231Z,96.59
2017-10-20T14:20:54.899Z,96.68
2017-10-20T14:23:22.598Z,96.73
2017-10-20T14:25:50.263Z,96.85
2017-10-20T14:28:17.974Z,96.88
2017-10-20T14:30:45.646Z,96.85
2017-10-20T14:33:13.359Z,96.82
2017-10-20T14:35:41.022Z,96.82
2017-10-20T14:38:08.797Z,96.72
2017-10-20T14:40:36.467Z,96.66
2017-10-20T14:43:04.122Z,96.79
2017-10-20T14:45:31.856Z,97.26
2017-10-20T14:47:59.481Z,97.34
2017-10-20T14:50:27.185Z,97.39
2017-10-20T14:52:54.845Z,97.57
2017-10-20T14:55:22.550Z,97.79
2017-10-20T14:57:50.161Z,97.96
2017-10-20T15:00:17.847Z,98.09
2017-10-20T15:02:45.520Z,98.40
2017-10-20T15:05:13.230Z,98.51
2017-10-20T15:07:40.891Z,98.70
2017-10-20T15:10:08.528Z,98.89
2017-10-20T15:12:36.177Z,98.96
2017-10-20T15:15:03.889Z,99.08
2017-10-20T15:17:31.545Z,99.15
2017-10-20T15:19:59.236Z,99.22
2017-10-20T15:22:26.885Z,99.28
2017-10-20T15:24:54.570Z,99.31
2017-10-20T15:27:22.175Z,99.31
2017-10-20T15:29:49.822Z,99.35
2017-10-20T15:32:17.514Z,99.32
2017-10-20T15:34:45.161Z,99.31
2017-10-20T15:37:12.911Z,99.32
2017-10-20T15:39:40.590Z,99.32
2017-10-20T15:42:08.277Z,99.42
2017-10-20T15:44:35.939Z,99.45
2017-10-20T15:47:03.641Z,99.46
2017-10-20T15:49:31.339Z,99.48
2017-10-20T15:51:59.079Z,99.49
2017-10-20T15:54:26.757Z,99.50
2017-10-20T15:56:54.482Z,99.55
2017-10-20T15:59:22.115Z,99.56
2017-10-20T16:01:49.743Z,99.56
2017-10-20T16:04:17.334Z,99.65
2017-10-20T16:06:45.010Z,99.67
2017-10-20T16:09:12.614Z,99.68
2017-10-20T16:11:40.286Z,99.70
2017-10-20T16:14:07.904Z,99.72
2017-10-20T16:16:35.503Z,99.72
2017-10-20T16:19:03.152Z,99.78
2017-10-20T16:21:30.743Z,99.86
2017-10-20T16:23:58.374Z,99.92
2017-10-20T16:26:25.966Z,99.94
2017-10-20T16:28:53.596Z,99.96
2017-10-20T16:31:21.178Z,99.98
2017-10-20T16:33:48.806Z,100.00
2017-10-20T16:36:16.453Z,100.00
2017-10-20T16:38:44.132Z,100.00
2017-10-20T16:41:11.765Z,100.00
2017-10-20T16:43:39.418Z,100.00
2017-10-20T16:46:07.055Z,100.00
2017-10-20T16:48:34.688Z,100.00
2017-10-20T16:51:02.325Z,100.00
2017-10-20T16:53:29.960Z,100.00
2017-10-20T16:55:57.617Z,100.00
2017-10-20T16:58:25.274Z,100.00
2017-10-20T17:00:52.915Z,100.00
2017-10-20T17:03:20.598Z,100.00
2017-10-20T17:05:48.239Z,99.97
2017-10-20T17:08:15.898Z,99.69
2017-10-20T17:10:43.610Z,99.07
2017-10-20T17:13:11.284Z,98.15
2017-10-20T17:15:38.996Z,97.59
2017-10-20T17:18:06.647Z,97.45
2017-10-20T17:20:34.335Z,97.55
2017-10-20T17:23:01.931Z,97.69
2017-10-20T17:25:29.617Z,97.73
2017-10-20T17:27:57.282Z,97.85
2017-10-20T17:30:24.974Z,98.13
2017-10-20T17:32:52.552Z,98.46
2017-10-20T17:35:20.189Z,98.50
2017-10-20T17:37:47.881Z,98.58
2017-10-20T17:40:15.573Z,98.93
2017-10-20T17:42:43.183Z,99.16
2017-10-20T17:45:10.884Z,99.26
2017-10-20T17:47:38.534Z,99.30
2017-10-20T17:50:06.295Z,99.32
2017-10-20T17:52:33.987Z,99.35
2017-10-20T17:55:01.653Z,99.46
2017-10-20T17:57:29.341Z,99.55
2017-10-20T17:59:56.967Z,99.62
2017-10-20T18:02:24.601Z,99.63
2017-10-20T18:04:52.198Z,99.61
2017-10-20T18:07:19.817Z,99.58
2017-10-20T18:09:47.438Z,99.52
2017-10-20T18:12:15.092Z,99.45
2017-10-20T18:14:42.696Z,99.42
2017-10-20T18:17:10.325Z,99.44
2017-10-20T18:19:37.913Z,99.44
2017-10-20T18:22:05.509Z,99.42
2017-10-20T18:24:33.159Z,99.40
2017-10-20T18:27:00.751Z,99.43
2017-10-20T18:29:28.397Z,99.45
2017-10-20T18:31:55.990Z,99.43
2017-10-20T18:34:23.637Z,99.39
2017-10-20T18:36:51.235Z,99.36
2017-10-20T18:39:18.874Z,99.42
2017-10-20T18:41:46.462Z,99.50
2017-10-20T18:44:14.089Z,99.57
2017-10-20T18:46:41.693Z,99.60
2017-10-20T18:49:09.341Z,99.65
2017-10-20T18:51:36.937Z,99.67
2017-10-20T18:54:04.577Z,99.67
2017-10-20T18:56:32.203Z,99.71
2017-10-20T18:58:59.853Z,99.76
2017-10-20T19:01:27.465Z,99.83
2017-10-20T19:03:55.107Z,99.88
2017-10-20T19:06:22.801Z,99.94
2017-10-20T19:08:50.407Z,99.97
2017-10-20T19:11:18.030Z,100.00
2017-10-20T19:13:45.627Z,100.00
2017-10-20T19:16:13.274Z,100.00
2017-10-20T19:18:40.863Z,100.00
2017-10-20T19:21:08.492Z,100.00
2017-10-20T19:23:36.098Z,100.00
2017-10-20T19:26:03.741Z,100.00
2017-10-20T19:28:31.394Z,100.00
2017-10-20T19:30:59.090Z,100.00
2017-10-20T19:33:26.766Z,100.00
2017-10-20T19:35:54.481Z,100.00
2017-10-20T19:38:22.074Z,100.00
2017-10-20T19:40:49.753Z,100.00
2017-10-20T19:43:17.354Z,100.00
2017-10-20T19:45:45.001Z,100.00
2017-10-20T19:48:12.924Z,100.00
2017-10-20T19:50:40.528Z,100.00
2017-10-20T19:53:08.239Z,100.00
2017-10-20T19:55:35.836Z,100.00
2017-10-20T19:58:03.467Z,100.00
2017-10-20T20:00:31.106Z,100.00
2017-10-20T20:02:58.829Z,100.00
2017-10-20T20:05:26.487Z,100.00
2017-10-20T20:07:54.117Z,100.00
2017-10-20T20:10:21.749Z,100.00
2017-10-20T20:12:49.384Z,100.00
2017-10-20T20:15:17.031Z,100.00
2017-10-20T20:17:44.685Z,100.00
2017-10-20T20:20:12.316Z,100.00
2017-10-20T20:22:39.958Z,100.00
2017-10-20T20:25:07.622Z,100.00
2017-10-20T20:27:35.527Z,100.00
2017-10-20T20:30:03.227Z,100.00
2017-10-20T20:32:31.264Z,100.00
2017-10-20T20:34:58.874Z,100.00
2017-10-20T20:37:26.497Z,100.00
2017-10-20T20:39:54.136Z,100.00
2017-10-20T20:42:21.743Z,100.00
2017-10-20T20:44:49.375Z,100.00
2017-10-20T20:47:16.963Z,100.00
2017-10-20T20:49:44.607Z,100.00
2017-10-20T20:52:12.273Z,100.00
2017-10-20T20:54:39.984Z,100.00
2017-10-20T20:57:07.661Z,100.00
2017-10-20T20:59:35.364Z,100.00
2017-10-20T21:02:03.013Z,100.00
2017-10-20T21:04:30.717Z,100.00
2017-10-20T21:06:58.393Z,100.00
2017-10-20T21:09:26.087Z,100.00
2017-10-20T21:11:53.753Z,100.00
2017-10-20T21:14:21.405Z,100.00
2017-10-20T21:16:49.116Z,100.00
2017-10-20T21:19:16.787Z,100.00
2017-10-20T21:21:44.482Z,100.00
2017-10-20T21:24:12.075Z,100.00
2017-10-20T21:26:39.773Z,100.00
2017-10-20T21:29:07.441Z,100.00
2017-10-20T21:31:36.143Z,100.00
2017-10-20T21:34:03.794Z,100.00
2017-10-20T21:36:31.487Z,100.00
2017-10-20T21:38:59.193Z,100.00
2017-10-20T21:41:26.891Z,100.00
2017-10-20T21:43:54.551Z,100.00
2017-10-20T21:46:22.255Z,100.00
2017-10-20T21:48:49.926Z,100.00
2017-10-20T21:51:17.636Z,100.00
2017-10-20T21:53:45.295Z,100.00
2017-10-20T21:56:12.978Z,100.00
2017-10-20T21:58:40.618Z,100.00
2017-10-20T22:01:08.331Z,100.00
2017-10-20T22:03:35.967Z,100.00
2017-10-20T22:06:03.617Z,100.00
2017-10-20T22:08:31.310Z,100.00
2017-10-20T22:10:58.961Z,100.00
2017-10-20T22:13:26.664Z,100.00
2017-10-20T22:15:54.302Z,100.00
2017-10-20T22:18:21.938Z,100.00
2017-10-20T22:20:49.593Z,100.00
2017-10-20T22:23:17.276Z,100.00
2017-10-20T22:25:44.940Z,100.00
2017-10-20T22:28:12.629Z,100.00
2017-10-20T22:30:40.271Z,100.00
2017-10-20T22:33:07.966Z,100.00
2017-10-20T22:35:35.558Z,100.00
2017-10-20T22:38:03.277Z,100.00
2017-10-20T22:40:30.923Z,100.00
2017-10-20T22:42:58.598Z,100.00
2017-10-20T22:45:26.256Z,100.00
2017-10-20T22:47:53.941Z,100.00
2017-10-20T22:50:21.590Z,100.00
2017-10-20T22:52:49.175Z,100.00
2017-10-20T22:55:16.806Z,100.00
2017-10-20T22:57:44.460Z,100.00
2017-10-20T23:00:12.163Z,100.00
2017-10-20T23:02:39.825Z,100.00
2017-10-20T23:05:07.465Z,100.00
2017-10-20T23:07:35.111Z,99.94
2017-10-20T23:10:02.816Z,99.89
2017-10-20T23:12:30.475Z,99.82
2017-10-20T23:14:58.163Z,99.80
2017-10-20T23:17:25.838Z,99.80
2017-10-20T23:19:53.551Z,99.81
2017-10-20T23:22:21.190Z,99.83
2017-10-20T23:24:49.784Z,99.83
2017-10-20T23:27:17.417Z,99.85
2017-10-20T23:29:45.058Z,99.85
2017-10-20T23:32:12.758Z,99.83
2017-10-20T23:34:40.411Z,99.82
2017-10-20T23:37:08.134Z,99.82
2017-10-20T23:39:35.782Z,99.78
2017-10-20T23:42:03.462Z,99.76
2017-10-20T23:44:31.134Z,99.74
2017-10-20T23:46:58.823Z,99.75
2017-10-20T23:49:26.464Z,99.71
2017-10-20T23:51:54.139Z,99.70
2017-10-20T23:54:21.758Z,99.69
2017-10-20T23:56:49.442Z,99.67
2017-10-20T23:59:17.092Z,99.64
